Time;durP1;ratioP1;P1;durP2;ratioP2;P2;SDS_P1;SDS_P2;PMS_P1;PMS_P2;Temp;Humidity;BMP_temperature;BMP_pressure;BME280_temperature;BME280_humidity;BME280_pressure;Samples;Min_cycle;Max_cycle;Signal;HPM_P1;HPM_P2
2024/04/03 00:00:00;;;;;;;20.03;10.60;;;;;;;;;;5033502;28;20414;-84
2024/04/03 00:02:26;;;;;;;14.93;8.90;;;;;;;;;;5027388;28;20481;-83
2024/04/03 00:04:52;;;;;;;16.13;10.50;;;;;;;;;;5026065;28;20838;-82
2024/04/03 00:07:18;;;;;;;15.40;7.80;;;;;;;;;;5013671;28;20502;-83
2024/04/03 00:09:44;;;;;;;27.40;10.73;;;;;;;;;;5013146;28;20437;-84
2024/04/03 00:12:10;;;;;;;20.57;9.57;;;;;;;;;;5013476;28;20423;-77
2024/04/03 00:14:36;;;;;;;18.60;8.83;;;;;;;;;;5013387;28;20422;-78
2024/04/03 00:17:02;;;;;;;20.37;9.13;;;;;;;;;;5013224;28;20429;-79
2024/04/03 00:19:28;;;;;;;14.43;9.80;;;;;;;;;;5028474;28;20427;-78
2024/04/03 00:21:54;;;;;;;18.93;11.17;;;;;;;;;;5013217;28;20862;-85
2024/04/03 00:24:20;;;;;;;19.10;10.97;;;;;;;;;;5012759;28;20432;-81
2024/04/03 00:26:46;;;;;;;21.93;10.63;;;;;;;;;;5013098;28;20427;-85
2024/04/03 00:29:12;;;;;;;19.67;11.63;;;;;;;;;;5013141;28;20532;-85
2024/04/03 00:31:38;;;;;;;19.63;12.10;;;;;;;;;;5013102;28;20175;-80
2024/04/03 00:34:04;;;;;;;18.23;11.07;;;;;;;;;;5028638;28;20484;-80
2024/04/03 00:36:30;;;;;;;15.80;10.57;;;;;;;;;;5012440;28;20491;-82
2024/04/03 00:38:56;;;;;;;18.67;9.97;;;;;;;;;;5012912;28;20740;-82
2024/04/03 00:41:22;;;;;;;19.73;10.17;;;;;;;;;;5012595;28;20466;-78
2024/04/03 00:43:49;;;;;;;16.37;9.00;;;;;;;;;;5012923;28;20416;-78
2024/04/03 00:46:15;;;;;;;12.93;8.37;;;;;;;;;;5012596;28;20442;-85
2024/04/03 00:48:42;;;;;;;15.37;8.50;;;;;;;;;;5027387;28;20475;-77
2024/04/03 00:51:08;;;;;;;16.13;10.13;;;;;;;;;;5027988;28;20455;-79
2024/04/03 00:53:34;;;;;;;18.07;10.37;;;;;;;;;;5012490;28;21865;-78
2024/04/03 00:56:00;;;;;;;15.90;8.87;;;;;;;;;;5012413;28;20419;-78
2024/04/03 00:58:26;;;;;;;15.00;9.90;;;;;;;;;;5012962;28;20414;-81
2024/04/03 01:00:52;;;;;;;14.80;9.90;;;;;;;;;;5012716;28;20446;-78
2024/04/03 01:03:18;;;;;;;18.70;10.33;;;;;;;;;;5027949;28;20171;-79
2024/04/03 01:05:43;;;;;;;18.07;9.17;;;;;;;;;;5012824;28;20456;-82
2024/04/03 01:08:09;;;;;;;16.83;10.73;;;;;;;;;;5012601;28;20985;-78
2024/04/03 01:10:35;;;;;;;12.23;8.43;;;;;;;;;;5012240;28;20182;-78
2024/04/03 01:13:01;;;;;;;15.37;8.67;;;;;;;;;;5012653;28;20488;-84
2024/04/03 01:15:28;;;;;;;15.77;10.40;;;;;;;;;;5015204;28;20418;-80
2024/04/03 01:17:54;;;;;;;17.30;9.07;;;;;;;;;;5031795;28;20489;-77
2024/04/03 01:20:20;;;;;;;13.00;8.20;;;;;;;;;;5016246;28;20517;-77
2024/04/03 01:22:46;;;;;;;12.83;9.40;;;;;;;;;;5016454;28;20413;-78
2024/04/03 01:25:11;;;;;;;13.43;9.87;;;;;;;;;;5016003;28;20414;-78
2024/04/03 01:27:37;;;;;;;13.73;9.90;;;;;;;;;;5016209;28;20422;-77
2024/04/03 01:30:03;;;;;;;13.10;8.07;;;;;;;;;;5016269;28;20412;-77
2024/04/03 01:32:29;;;;;;;11.43;8.93;;;;;;;;;;5016240;28;20670;-76
2024/04/03 01:34:55;;;;;;;13.83;8.40;;;;;;;;;;5016164;28;20412;-80
2024/04/03 01:37:21;;;;;;;9.43;7.17;;;;;;;;;;5031454;28;20407;-81
2024/04/03 01:39:48;;;;;;;13.13;7.40;;;;;;;;;;5015810;28;20410;-76
2024/04/03 01:42:14;;;;;;;12.03;6.70;;;;;;;;;;5016014;28;20523;-77
2024/04/03 01:44:40;;;;;;;9.97;6.67;;;;;;;;;;5016011;28;20426;-78
2024/04/03 01:47:06;;;;;;;8.67;6.30;;;;;;;;;;5016026;28;20422;-77
2024/04/03 01:49:32;;;;;;;8.23;4.40;;;;;;;;;;5015992;28;20171;-76
2024/04/03 01:51:58;;;;;;;8.17;6.27;;;;;;;;;;5015803;28;20964;-77
2024/04/03 01:54:24;;;;;;;9.63;6.10;;;;;;;;;;5015554;28;20402;-77
2024/04/03 01:56:50;;;;;;;9.50;5.07;;;;;;;;;;5015754;28;20432;-85
2024/04/03 01:59:16;;;;;;;9.30;5.33;;;;;;;;;;5015684;28;20406;-84
2024/04/03 02:01:42;;;;;;;10.27;5.50;;;;;;;;;;5015679;28;20568;-76
2024/04/03 02:04:08;;;;;;;9.10;5.53;;;;;;;;;;5015643;28;20417;-77
2024/04/03 02:06:34;;;;;;;7.77;6.20;;;;;;;;;;5015566;28;20513;-79
2024/04/03 02:08:59;;;;;;;10.00;5.80;;;;;;;;;;5030514;28;20518;-76
2024/04/03 02:11:25;;;;;;;9.50;5.73;;;;;;;;;;5015519;28;20421;-76
2024/04/03 02:13:51;;;;;;;11.00;5.27;;;;;;;;;;5015526;28;20201;-77
2024/04/03 02:16:17;;;;;;;8.00;4.73;;;;;;;;;;5015363;28;20424;-80
2024/04/03 02:18:43;;;;;;;7.03;5.17;;;;;;;;;;5015435;28;20181;-85
2024/04/03 02:21:09;;;;;;;7.00;4.93;;;;;;;;;;5015305;28;20467;-77
2024/04/03 02:23:35;;;;;;;11.13;6.07;;;;;;;;;;5015271;28;20421;-83
2024/04/03 02:26:01;;;;;;;9.40;4.20;;;;;;;;;;5014467;28;20414;-84
2024/04/03 02:28:27;;;;;;;7.40;4.50;;;;;;;;;;5015154;28;21122;-78
2024/04/03 02:31:00;;;;;;;8.33;5.50;;;;;;;;;;5015224;28;20429;-78
2024/04/03 02:33:26;;;;;;;6.47;3.93;;;;;;;;;;5013313;28;20186;-77
2024/04/03 02:35:52;;;;;;;12.67;6.80;;;;;;;;;;5015144;28;20426;-77
2024/04/03 02:38:18;;;;;;;8.17;4.97;;;;;;;;;;5015073;28;20410;-80
2024/04/03 02:40:44;;;;;;;7.33;5.83;;;;;;;;;;5014682;28;20558;-77
2024/04/03 02:43:10;;;;;;;6.77;4.53;;;;;;;;;;5014968;28;20182;-84
2024/04/03 02:45:36;;;;;;;8.77;5.40;;;;;;;;;;5030114;28;20537;-77
2024/04/03 02:48:02;;;;;;;8.50;5.73;;;;;;;;;;5014918;28;20499;-79
2024/04/03 02:50:27;;;;;;;7.17;4.73;;;;;;;;;;5014806;28;20465;-82
2024/04/03 02:52:53;;;;;;;8.17;5.17;;;;;;;;;;5014780;28;20516;-80
2024/04/03 02:55:19;;;;;;;8.47;4.67;;;;;;;;;;5014304;28;20512;-86
2024/04/03 02:57:45;;;;;;;8.43;4.90;;;;;;;;;;5014777;28;20521;-78
2024/04/03 03:00:11;;;;;;;7.90;4.90;;;;;;;;;;5014692;28;20931;-78
2024/04/03 03:02:37;;;;;;;6.97;4.27;;;;;;;;;;5014476;28;20210;-77
2024/04/03 03:05:03;;;;;;;8.00;5.30;;;;;;;;;;5029810;28;21034;-81
2024/04/03 03:07:29;;;;;;;9.67;6.00;;;;;;;;;;5029545;28;20271;-82
2024/04/03 03:09:55;;;;;;;7.43;4.43;;;;;;;;;;5014049;28;20510;-80
2024/04/03 03:12:21;;;;;;;8.60;4.10;;;;;;;;;;5014389;28;20793;-87
2024/04/03 03:14:47;;;;;;;7.40;5.03;;;;;;;;;;5029642;28;20417;-78
2024/04/03 03:17:13;;;;;;;6.20;4.90;;;;;;;;;;5014401;28;20428;-85
2024/04/03 03:19:39;;;;;;;7.60;4.67;;;;;;;;;;5014197;28;20445;-85
2024/04/03 03:22:04;;;;;;;6.97;4.60;;;;;;;;;;5014296;28;20996;-86
2024/04/03 03:24:30;;;;;;;5.60;4.50;;;;;;;;;;5013723;28;20419;-77
2024/04/03 03:26:56;;;;;;;7.60;5.20;;;;;;;;;;5029330;28;20544;-77
2024/04/03 03:29:22;;;;;;;10.93;5.17;;;;;;;;;;5029381;28;20175;-77
2024/04/03 03:31:48;;;;;;;7.00;5.27;;;;;;;;;;5014073;28;20570;-85
2024/04/03 03:34:14;;;;;;;8.57;4.20;;;;;;;;;;5014022;28;20471;-78
2024/04/03 03:36:40;;;;;;;7.20;4.47;;;;;;;;;;5013103;28;20432;-78
2024/04/03 03:39:06;;;;;;;7.37;5.03;;;;;;;;;;5013498;28;20183;-78
2024/04/03 03:41:32;;;;;;;8.83;5.10;;;;;;;;;;5013768;28;20310;-79
2024/04/03 03:43:58;;;;;;;8.23;4.63;;;;;;;;;;5013857;28;20447;-78
2024/04/03 03:46:23;;;;;;;5.27;4.10;;;;;;;;;;5013820;28;20987;-79
2024/04/03 03:54:18;;;;;;;7.10;5.80;;;;;;;;;;5013034;28;20414;-82
2024/04/03 03:56:44;;;;;;;6.40;4.40;;;;;;;;;;5013682;28;20433;-78
2024/04/03 03:59:10;;;;;;;5.40;4.10;;;;;;;;;;5013524;28;20448;-77
2024/04/03 04:01:36;;;;;;;7.63;4.73;;;;;;;;;;5013393;28;20834;-78
2024/04/03 04:04:02;;;;;;;4.97;3.63;;;;;;;;;;5013343;28;20415;-77
2024/04/03 04:06:28;;;;;;;5.47;4.10;;;;;;;;;;5013276;28;20186;-77
2024/04/03 04:08:54;;;;;;;6.37;4.40;;;;;;;;;;5013150;28;20425;-78
2024/04/03 04:11:19;;;;;;;5.30;3.50;;;;;;;;;;5013265;28;20511;-77
2024/04/03 04:13:45;;;;;;;5.90;4.20;;;;;;;;;;5013439;28;20906;-84
2024/04/03 04:16:11;;;;;;;6.00;3.03;;;;;;;;;;5013302;28;20185;-83
2024/04/03 04:18:37;;;;;;;7.23;4.60;;;;;;;;;;5013190;28;20628;-83
2024/04/03 04:21:04;;;;;;;6.10;4.20;;;;;;;;;;5028316;28;20207;-82
2024/04/03 04:23:30;;;;;;;5.83;4.60;;;;;;;;;;5013024;28;20409;-81
2024/04/03 04:26:04;;;;;;;4.77;3.67;;;;;;;;;;5013007;28;20782;-84
2024/04/03 04:28:30;;;;;;;6.63;5.10;;;;;;;;;;5013173;28;20180;-83
2024/04/03 04:31:02;;;;;;;5.70;3.73;;;;;;;;;;5013043;28;20413;-83
2024/04/03 04:33:29;;;;;;;7.53;4.63;;;;;;;;;;5013160;28;20781;-81
2024/04/03 04:35:55;;;;;;;6.07;4.13;;;;;;;;;;5013158;28;20409;-84
2024/04/03 04:38:22;;;;;;;9.47;5.63;;;;;;;;;;5033972;28;20428;-84
2024/04/03 04:40:57;;;;;;;5.33;4.33;;;;;;;;;;5012569;28;20562;-84
2024/04/03 04:43:24;;;;;;;6.27;5.27;;;;;;;;;;5010576;28;20421;-85
2024/04/03 04:45:57;;;;;;;5.87;4.23;;;;;;;;;;5012910;28;20491;-85
2024/04/03 04:48:23;;;;;;;5.83;4.80;;;;;;;;;;5010307;28;20425;-84
2024/04/03 04:50:56;;;;;;;6.70;4.90;;;;;;;;;;5012878;28;20475;-83
2024/04/03 04:53:22;;;;;;;6.20;4.60;;;;;;;;;;5010349;28;20429;-85
2024/04/03 04:55:51;;;;;;;5.60;4.70;;;;;;;;;;5012513;28;20408;-78
2024/04/03 04:58:17;;;;;;;4.67;3.97;;;;;;;;;;5012656;28;20536;-82
2024/04/03 05:00:43;;;;;;;5.73;4.47;;;;;;;;;;5027827;28;20962;-78
2024/04/03 05:03:09;;;;;;;6.50;4.10;;;;;;;;;;5012673;28;20430;-81
2024/04/03 05:05:35;;;;;;;5.20;3.63;;;;;;;;;;5012421;28;20413;-86
2024/04/03 05:08:03;;;;;;;7.93;4.70;;;;;;;;;;5012518;28;20272;-85
2024/04/03 05:10:30;;;;;;;6.70;4.67;;;;;;;;;;5012321;28;20413;-84
2024/04/03 05:12:56;;;;;;;5.20;2.70;;;;;;;;;;5012646;28;20439;-77
2024/04/03 05:15:22;;;;;;;6.20;4.17;;;;;;;;;;5012557;28;20414;-77
2024/04/03 05:17:48;;;;;;;5.63;3.57;;;;;;;;;;5027449;28;20986;-79
2024/04/03 05:20:13;;;;;;;5.00;3.83;;;;;;;;;;5012452;28;20417;-77
2024/04/03 05:22:39;;;;;;;5.50;4.03;;;;;;;;;;5012212;28;20549;-76
2024/04/03 05:25:05;;;;;;;6.17;4.17;;;;;;;;;;5027186;28;20421;-76
2024/04/03 05:27:32;;;;;;;4.40;2.60;;;;;;;;;;5012442;28;20201;-77
2024/04/03 05:29:58;;;;;;;4.83;3.37;;;;;;;;;;5012451;28;20410;-77
2024/04/03 05:32:24;;;;;;;5.73;3.70;;;;;;;;;;5012332;28;20956;-77
2024/04/03 05:34:50;;;;;;;4.00;2.90;;;;;;;;;;5012354;28;20426;-77
2024/04/03 05:37:16;;;;;;;5.63;3.10;;;;;;;;;;5012322;28;20825;-76
2024/04/03 05:39:42;;;;;;;3.70;2.90;;;;;;;;;;5012174;28;20445;-77
2024/04/03 05:42:07;;;;;;;5.63;3.20;;;;;;;;;;5027541;28;20225;-77
2024/04/03 05:44:33;;;;;;;4.50;2.93;;;;;;;;;;5012315;28;20469;-79
2024/04/03 05:46:59;;;;;;;4.40;3.00;;;;;;;;;;5012305;28;20417;-79
2024/04/03 05:49:25;;;;;;;5.10;3.20;;;;;;;;;;5012229;28;20176;-76
2024/04/03 05:51:51;;;;;;;5.27;3.40;;;;;;;;;;5012373;28;20182;-78
2024/04/03 05:54:17;;;;;;;5.10;3.83;;;;;;;;;;5011859;28;20554;-76
2024/04/03 05:56:43;;;;;;;4.90;3.07;;;;;;;;;;5012288;28;20491;-77
2024/04/03 05:59:09;;;;;;;5.13;3.97;;;;;;;;;;5012155;28;21063;-76
2024/04/03 06:01:35;;;;;;;4.70;3.77;;;;;;;;;;5014755;28;21038;-77
2024/04/03 06:04:01;;;;;;;6.03;4.33;;;;;;;;;;5015676;28;20437;-76
2024/04/03 06:06:27;;;;;;;5.17;3.50;;;;;;;;;;5015847;28;20500;-76
2024/04/03 06:08:54;;;;;;;5.30;3.13;;;;;;;;;;5015245;28;20956;-81
2024/04/03 06:11:20;;;;;;;6.37;3.53;;;;;;;;;;5015467;28;20416;-82
2024/04/03 06:13:45;;;;;;;5.23;2.90;;;;;;;;;;5015920;28;20412;-81
2024/04/03 06:16:11;;;;;;;4.43;3.10;;;;;;;;;;5015267;28;20906;-81
2024/04/03 06:18:37;;;;;;;5.03;2.97;;;;;;;;;;5015664;28;20475;-82
2024/04/03 06:21:13;;;;;;;6.80;4.10;;;;;;;;;;5015568;28;20811;-81
2024/04/03 06:23:39;;;;;;;5.53;3.73;;;;;;;;;;5014241;28;20440;-82
2024/04/03 06:26:05;;;;;;;5.53;3.50;;;;;;;;;;5015766;28;20483;-77
2024/04/03 06:28:31;;;;;;;5.87;3.87;;;;;;;;;;5015724;28;20453;-82
2024/04/03 06:30:57;;;;;;;5.23;3.40;;;;;;;;;;5015663;28;20424;-81
2024/04/03 06:33:23;;;;;;;5.37;3.57;;;;;;;;;;5014419;28;20431;-81
2024/04/03 06:35:49;;;;;;;6.23;3.90;;;;;;;;;;5015630;28;20480;-82
2024/04/03 06:38:15;;;;;;;6.27;3.60;;;;;;;;;;5014046;28;20410;-82
2024/04/03 06:40:41;;;;;;;5.60;3.37;;;;;;;;;;5015448;28;21003;-81
2024/04/03 06:43:08;;;;;;;4.73;3.37;;;;;;;;;;5015376;28;20188;-81
2024/04/03 06:45:34;;;;;;;4.60;3.80;;;;;;;;;;5015493;28;20599;-82
2024/04/03 06:48:00;;;;;;;6.33;4.03;;;;;;;;;;5015315;28;20914;-82
2024/04/03 06:50:25;;;;;;;4.30;3.10;;;;;;;;;;5015372;28;20418;-82
2024/04/03 06:52:52;;;;;;;5.40;3.70;;;;;;;;;;5015383;28;20585;-83
2024/04/03 06:55:18;;;;;;;3.87;2.80;;;;;;;;;;5014898;28;20232;-83
2024/04/03 06:57:44;;;;;;;4.70;3.17;;;;;;;;;;5015333;28;20413;-81
2024/04/03 07:00:11;;;;;;;3.80;3.03;;;;;;;;;;5015458;28;20695;-78
2024/04/03 07:02:37;;;;;;;4.20;2.80;;;;;;;;;;5015182;28;20510;-80
2024/04/03 07:05:03;;;;;;;4.90;3.33;;;;;;;;;;5015052;28;20413;-81
2024/04/03 07:07:29;;;;;;;4.17;3.20;;;;;;;;;;5014793;28;20514;-79
2024/04/03 07:09:58;;;;;;;4.50;2.70;;;;;;;;;;5014583;28;20452;-77
2024/04/03 07:12:24;;;;;;;4.57;3.07;;;;;;;;;;5014937;28;20453;-81
2024/04/03 07:14:50;;;;;;;5.30;3.77;;;;;;;;;;5014960;28;20406;-82
2024/04/03 07:17:16;;;;;;;3.80;2.57;;;;;;;;;;5014991;28;20795;-79
2024/04/03 07:19:42;;;;;;;3.90;2.20;;;;;;;;;;5014837;28;20413;-82
2024/04/03 07:22:09;;;;;;;3.87;3.30;;;;;;;;;;5013491;28;20224;-81
2024/04/03 07:24:34;;;;;;;3.90;3.23;;;;;;;;;;5014390;28;20896;-80
2024/04/03 07:27:00;;;;;;;3.23;2.60;;;;;;;;;;5014677;28;20426;-83
2024/04/03 07:29:26;;;;;;;4.40;2.77;;;;;;;;;;5013414;28;20404;-82
2024/04/03 07:31:52;;;;;;;3.37;2.30;;;;;;;;;;5014610;28;20186;-86
2024/04/03 07:34:18;;;;;;;4.40;2.67;;;;;;;;;;5014552;28;20424;-79
2024/04/03 07:36:44;;;;;;;4.37;3.00;;;;;;;;;;5014494;28;20432;-83
2024/04/03 07:39:10;;;;;;;3.30;2.33;;;;;;;;;;5014119;28;20279;-79
2024/04/03 07:41:36;;;;;;;4.50;3.27;;;;;;;;;;5014362;28;20465;-86
2024/04/03 07:44:02;;;;;;;4.10;2.93;;;;;;;;;;5014303;28;20417;-81
2024/04/03 07:46:28;;;;;;;4.00;2.23;;;;;;;;;;5014147;28;20967;-82
2024/04/03 07:48:54;;;;;;;3.27;2.30;;;;;;;;;;5014164;28;20468;-81
2024/04/03 07:51:20;;;;;;;3.30;1.83;;;;;;;;;;5014185;28;20420;-78
2024/04/03 07:53:46;;;;;;;3.53;2.67;;;;;;;;;;5013671;28;20828;-81
2024/04/03 07:56:13;;;;;;;3.70;2.50;;;;;;;;;;5014076;28;20418;-82
2024/04/03 07:58:39;;;;;;;3.50;1.97;;;;;;;;;;5012819;28;20428;-83
2024/04/03 08:01:05;;;;;;;3.50;2.60;;;;;;;;;;5013887;28;20492;-80
2024/04/03 08:03:31;;;;;;;3.97;3.20;;;;;;;;;;5013940;28;20953;-79
2024/04/03 08:05:57;;;;;;;3.53;2.50;;;;;;;;;;5013896;28;20227;-81
2024/04/03 08:08:25;;;;;;;4.07;3.13;;;;;;;;;;5013272;28;20713;-81
2024/04/03 08:10:51;;;;;;;3.93;2.60;;;;;;;;;;5013884;28;20412;-81
2024/04/03 08:13:17;;;;;;;3.90;3.00;;;;;;;;;;5013787;28;20824;-80
2024/04/03 08:15:43;;;;;;;8.70;2.90;;;;;;;;;;5013838;28;20416;-80
2024/04/03 08:18:09;;;;;;;5.17;3.43;;;;;;;;;;5013778;28;20415;-81
2024/04/03 08:20:35;;;;;;;6.00;3.30;;;;;;;;;;5013706;28;20757;-81
2024/04/03 08:23:01;;;;;;;5.30;4.13;;;;;;;;;;5011646;28;20554;-79
2024/04/03 08:25:27;;;;;;;4.27;3.60;;;;;;;;;;5013703;28;20505;-80
2024/04/03 08:27:54;;;;;;;4.70;3.60;;;;;;;;;;5013603;28;20245;-78
2024/04/03 08:30:23;;;;;;;5.37;3.67;;;;;;;;;;5012334;28;20437;-83
2024/04/03 08:32:49;;;;;;;4.53;3.50;;;;;;;;;;5013343;28;20418;-83
2024/04/03 08:35:15;;;;;;;5.07;3.57;;;;;;;;;;5013408;28;20466;-81
2024/04/03 08:37:41;;;;;;;4.10;3.70;;;;;;;;;;5013438;28;20416;-84
2024/04/03 08:40:11;;;;;;;5.43;3.13;;;;;;;;;;5013072;28;20416;-79
2024/04/03 08:42:37;;;;;;;5.97;4.17;;;;;;;;;;5013382;28;20531;-80
2024/04/03 08:45:04;;;;;;;5.07;4.00;;;;;;;;;;5013266;28;20411;-79
2024/04/03 08:47:30;;;;;;;6.47;3.83;;;;;;;;;;5013334;28;20852;-81
2024/04/03 08:49:56;;;;;;;4.47;3.50;;;;;;;;;;5013264;28;20446;-78
2024/04/03 08:52:23;;;;;;;5.50;3.70;;;;;;;;;;5013312;28;20930;-84
2024/04/03 08:54:54;;;;;;;5.57;3.73;;;;;;;;;;5012951;28;20230;-83
2024/04/03 08:57:20;;;;;;;5.23;3.73;;;;;;;;;;5013244;28;20754;-79
2024/04/03 08:59:46;;;;;;;5.43;3.80;;;;;;;;;;5013252;28;20415;-80
2024/04/03 09:02:12;;;;;;;5.10;3.40;;;;;;;;;;5013094;28;20474;-85
2024/04/03 09:04:38;;;;;;;4.80;3.53;;;;;;;;;;5013090;28;20613;-82
2024/04/03 09:07:04;;;;;;;4.73;3.20;;;;;;;;;;5012919;28;20497;-78
2024/04/03 09:09:31;;;;;;;5.00;3.50;;;;;;;;;;5012781;28;20585;-81
2024/04/03 09:12:02;;;;;;;4.50;3.53;;;;;;;;;;5013018;28;20424;-81
2024/04/03 09:14:28;;;;;;;6.20;5.13;;;;;;;;;;5013107;28;20420;-80
2024/04/03 09:16:59;;;;;;;4.87;3.80;;;;;;;;;;5011957;28;20442;-81
2024/04/03 09:19:24;;;;;;;7.33;4.27;;;;;;;;;;5012109;28;20770;-81
2024/04/03 09:21:50;;;;;;;6.27;3.90;;;;;;;;;;5011760;28;20483;-83
2024/04/03 09:24:17;;;;;;;5.07;4.00;;;;;;;;;;5012729;28;20412;-82
2024/04/03 09:26:47;;;;;;;6.20;4.60;;;;;;;;;;5013063;28;20421;-79
2024/04/03 09:29:17;;;;;;;5.33;4.30;;;;;;;;;;5013048;28;20441;-84
2024/04/03 09:31:43;;;;;;;6.00;4.97;;;;;;;;;;5013005;28;20428;-81
2024/04/03 09:34:09;;;;;;;5.50;3.67;;;;;;;;;;5012875;28;20421;-81
2024/04/03 09:36:35;;;;;;;5.83;3.90;;;;;;;;;;5015799;28;20465;-82
2024/04/03 09:39:02;;;;;;;6.03;3.70;;;;;;;;;;5016468;28;20416;-83
2024/04/03 09:41:30;;;;;;;6.17;4.60;;;;;;;;;;5015329;28;20485;-81
2024/04/03 09:44:00;;;;;;;7.07;5.77;;;;;;;;;;5015302;28;20976;-81
2024/04/03 09:46:28;;;;;;;6.90;4.10;;;;;;;;;;5015282;28;20421;-81
2024/04/03 09:48:54;;;;;;;5.13;3.93;;;;;;;;;;5016268;28;20411;-83
2024/04/03 09:51:20;;;;;;;6.77;4.43;;;;;;;;;;5016415;28;20424;-79
2024/04/03 09:53:46;;;;;;;4.23;3.10;;;;;;;;;;5016038;28;20556;-80
2024/04/03 09:56:16;;;;;;;5.93;3.50;;;;;;;;;;5016322;28;20426;-79
2024/04/03 09:58:42;;;;;;;6.17;3.90;;;;;;;;;;5016249;28;20414;-78
2024/04/03 10:01:08;;;;;;;5.37;4.43;;;;;;;;;;5016162;28;20461;-79
2024/04/03 10:03:35;;;;;;;6.60;3.50;;;;;;;;;;5015026;28;20612;-78
2024/04/03 10:06:11;;;;;;;6.50;4.50;;;;;;;;;;5016222;28;20898;-78
2024/04/03 10:08:40;;;;;;;6.93;5.47;;;;;;;;;;5015662;28;20448;-80
2024/04/03 10:11:13;;;;;;;7.17;4.87;;;;;;;;;;5016155;28;20425;-79
2024/04/03 10:13:40;;;;;;;7.07;4.90;;;;;;;;;;5016127;28;20436;-79
2024/04/03 10:16:07;;;;;;;7.40;5.30;;;;;;;;;;5016073;28;20488;-79
2024/04/03 10:18:38;;;;;;;8.00;6.67;;;;;;;;;;5015907;28;20418;-80
2024/04/03 10:21:04;;;;;;;8.27;4.47;;;;;;;;;;5015871;28;20554;-79
2024/04/03 10:23:30;;;;;;;8.30;6.07;;;;;;;;;;5015536;28;20427;-79
2024/04/03 10:25:56;;;;;;;5.60;4.00;;;;;;;;;;5015887;28;20470;-79
2024/04/03 10:28:22;;;;;;;6.53;5.17;;;;;;;;;;5015783;28;20406;-78
2024/04/03 10:30:55;;;;;;;6.50;5.00;;;;;;;;;;5014520;28;21019;-79
2024/04/03 10:33:21;;;;;;;6.53;3.30;;;;;;;;;;5015664;28;20857;-79
2024/04/03 10:35:47;;;;;;;7.10;4.87;;;;;;;;;;5015610;28;20925;-78
2024/04/03 10:38:13;;;;;;;6.73;5.97;;;;;;;;;;5015192;28;20500;-79
2024/04/03 10:40:40;;;;;;;7.40;5.37;;;;;;;;;;5015344;28;20417;-78
2024/04/03 10:43:06;;;;;;;7.57;5.73;;;;;;;;;;5015426;28;20424;-78
2024/04/03 10:45:31;;;;;;;8.93;5.97;;;;;;;;;;5015612;28;20479;-80
2024/04/03 10:47:57;;;;;;;8.80;5.50;;;;;;;;;;5015174;28;20410;-84
2024/04/03 10:50:24;;;;;;;9.30;6.47;;;;;;;;;;5015424;28;20202;-81
2024/04/03 10:52:50;;;;;;;10.70;5.60;;;;;;;;;;5015033;28;20421;-79
2024/04/03 10:55:20;;;;;;;7.20;5.50;;;;;;;;;;5015317;28;20422;-82
2024/04/03 10:57:52;;;;;;;9.30;5.70;;;;;;;;;;5015235;28;20467;-83
2024/04/03 11:00:20;;;;;;;6.60;5.27;;;;;;;;;;5015229;28;20412;-79
2024/04/03 11:02:46;;;;;;;6.53;4.83;;;;;;;;;;5015272;28;20876;-84
2024/04/03 11:05:13;;;;;;;8.57;5.17;;;;;;;;;;5015033;28;20452;-81
2024/04/03 11:07:40;;;;;;;7.63;4.97;;;;;;;;;;5014367;28;20837;-82
2024/04/03 11:10:07;;;;;;;6.70;5.53;;;;;;;;;;5015017;28;20413;-80
2024/04/03 11:12:33;;;;;;;8.37;6.17;;;;;;;;;;5014890;28;20855;-82
2024/04/03 11:14:59;;;;;;;6.43;5.70;;;;;;;;;;5014927;28;20409;-82
2024/04/03 11:17:25;;;;;;;7.80;5.43;;;;;;;;;;5014299;28;20425;-80
2024/04/03 11:19:50;;;;;;;7.63;5.60;;;;;;;;;;5013986;28;20185;-86
2024/04/03 11:22:16;;;;;;;6.47;4.20;;;;;;;;;;5014789;28;20477;-81
2024/04/03 11:24:42;;;;;;;7.80;5.10;;;;;;;;;;5014511;28;20177;-79
2024/04/03 11:27:08;;;;;;;6.73;5.70;;;;;;;;;;5014859;28;20178;-81
2024/04/03 11:29:37;;;;;;;5.80;3.67;;;;;;;;;;5014799;28;20569;-82
2024/04/03 11:32:03;;;;;;;6.00;4.20;;;;;;;;;;5014125;28;20416;-80
2024/04/03 11:34:29;;;;;;;7.93;4.20;;;;;;;;;;5033464;28;20778;-83
2024/04/03 11:36:56;;;;;;;6.73;5.47;;;;;;;;;;5034307;28;20495;-88
2024/04/03 11:39:22;;;;;;;6.27;4.97;;;;;;;;;;5034244;28;20548;-85
2024/04/03 11:41:48;;;;;;;6.33;4.40;;;;;;;;;;5049384;28;20628;-84
2024/04/03 11:44:15;;;;;;;8.00;4.87;;;;;;;;;;5033911;28;20910;-85
2024/04/03 11:46:44;;;;;;;8.70;5.50;;;;;;;;;;5033641;28;20424;-84
2024/04/03 11:49:10;;;;;;;6.67;5.20;;;;;;;;;;5033821;28;20769;-78
2024/04/03 11:51:36;;;;;;;5.43;4.47;;;;;;;;;;5033898;28;20421;-80
2024/04/03 11:54:03;;;;;;;5.43;4.50;;;;;;;;;;5033753;28;20177;-76
2024/04/03 11:56:29;;;;;;;6.20;5.13;;;;;;;;;;5033937;28;20178;-80
2024/04/03 11:58:55;;;;;;;11.67;6.87;;;;;;;;;;5033420;28;20894;-81
2024/04/03 12:01:22;;;;;;;7.20;5.17;;;;;;;;;;5034140;28;20212;-79
2024/04/03 12:03:48;;;;;;;5.60;5.00;;;;;;;;;;5049142;28;20979;-79
2024/04/03 12:06:14;;;;;;;7.97;4.63;;;;;;;;;;5034048;28;20413;-80
2024/04/03 12:08:39;;;;;;;9.20;5.60;;;;;;;;;;5033317;28;20478;-79
2024/04/03 12:11:06;;;;;;;6.27;4.73;;;;;;;;;;5033541;28;20470;-80
2024/04/03 12:13:32;;;;;;;9.00;5.13;;;;;;;;;;5033805;28;20264;-82
2024/04/03 12:16:01;;;;;;;7.63;5.20;;;;;;;;;;5034084;28;21025;-90
2024/04/03 12:18:37;;;;;;;8.03;5.20;;;;;;;;;;5033825;28;20183;-81
2024/04/03 12:21:09;;;;;;;8.87;6.13;;;;;;;;;;5033829;28;20509;-87
2024/04/03 12:23:35;;;;;;;6.57;5.20;;;;;;;;;;5033408;28;20889;-83
2024/04/03 12:26:04;;;;;;;5.40;4.30;;;;;;;;;;5033611;28;20468;-86
2024/04/03 12:28:30;;;;;;;8.07;5.03;;;;;;;;;;5033713;28;20461;-86
2024/04/03 12:30:56;;;;;;;7.17;5.17;;;;;;;;;;5033688;28;20401;-84
2024/04/03 12:33:23;;;;;;;5.97;4.67;;;;;;;;;;5033771;28;20175;-84
2024/04/03 12:35:49;;;;;;;7.93;5.10;;;;;;;;;;5033483;28;20915;-86
2024/04/03 12:38:15;;;;;;;6.90;5.53;;;;;;;;;;5033202;28;20424;-80
2024/04/03 12:40:41;;;;;;;6.60;5.70;;;;;;;;;;5033322;28;20419;-89
2024/04/03 12:43:07;;;;;;;7.77;4.70;;;;;;;;;;5033408;28;20189;-81
2024/04/03 12:45:33;;;;;;;7.17;6.13;;;;;;;;;;5033618;28;20401;-89
2024/04/03 12:47:59;;;;;;;7.07;5.00;;;;;;;;;;5033293;28;20420;-88
2024/04/03 12:50:26;;;;;;;6.47;4.80;;;;;;;;;;5038302;28;20407;-83
2024/04/03 12:52:52;;;;;;;8.80;6.20;;;;;;;;;;5034196;28;20408;-87
2024/04/03 12:55:19;;;;;;;8.93;5.63;;;;;;;;;;5035674;28;20608;-85
2024/04/03 12:57:45;;;;;;;6.60;5.53;;;;;;;;;;5034199;28;20424;-87
2024/04/03 13:00:11;;;;;;;7.90;4.83;;;;;;;;;;5033595;28;20408;-83
2024/04/03 13:02:37;;;;;;;7.13;5.07;;;;;;;;;;5033356;28;20307;-88
2024/04/03 13:05:03;;;;;;;8.80;5.83;;;;;;;;;;5033535;28;20421;-90
2024/04/03 13:07:29;;;;;;;7.27;5.70;;;;;;;;;;5032910;28;20231;-88
2024/04/03 13:09:55;;;;;;;10.00;5.77;;;;;;;;;;5035208;28;20807;-80
2024/04/03 13:12:21;;;;;;;6.60;4.67;;;;;;;;;;5036949;28;20228;-80
2024/04/03 13:14:47;;;;;;;7.47;5.77;;;;;;;;;;5036988;28;20533;-79
2024/04/03 13:17:12;;;;;;;7.37;5.67;;;;;;;;;;5036853;28;20424;-80
2024/04/03 13:19:38;;;;;;;8.57;5.80;;;;;;;;;;5036848;28;20416;-80
2024/04/03 13:22:06;;;;;;;6.67;4.63;;;;;;;;;;5036340;28;20483;-79
2024/04/03 13:24:32;;;;;;;6.30;5.63;;;;;;;;;;5036792;28;20185;-79
2024/04/03 13:26:58;;;;;;;7.30;4.60;;;;;;;;;;5036777;28;20443;-79
2024/04/03 13:29:24;;;;;;;6.60;4.57;;;;;;;;;;5036728;28;20171;-80
2024/04/03 13:31:50;;;;;;;6.13;4.60;;;;;;;;;;5036551;28;20174;-80
2024/04/03 13:34:15;;;;;;;9.23;6.30;;;;;;;;;;5036636;28;20174;-79
2024/04/03 13:36:41;;;;;;;6.70;5.10;;;;;;;;;;5036529;28;20412;-81
2024/04/03 13:39:08;;;;;;;7.07;5.23;;;;;;;;;;5036097;28;20643;-80
2024/04/03 13:41:34;;;;;;;7.73;5.80;;;;;;;;;;5036364;28;20494;-80
2024/04/03 13:44:00;;;;;;;8.80;5.17;;;;;;;;;;5036290;28;20416;-81
2024/04/03 13:46:26;;;;;;;7.37;4.73;;;;;;;;;;5036359;28;20488;-80
2024/04/03 13:48:52;;;;;;;7.20;5.93;;;;;;;;;;5036276;28;20172;-81
2024/04/03 13:51:18;;;;;;;5.00;4.50;;;;;;;;;;5036229;28;20423;-80
2024/04/03 13:53:44;;;;;;;5.87;4.03;;;;;;;;;;5035908;28;20927;-81
2024/04/03 13:56:11;;;;;;;6.97;5.57;;;;;;;;;;5036171;28;20579;-80
2024/04/03 13:58:37;;;;;;;6.17;4.60;;;;;;;;;;5036080;28;20426;-80
2024/04/03 14:01:03;;;;;;;7.60;4.83;;;;;;;;;;5035965;28;20460;-79
2024/04/03 14:03:36;;;;;;;7.10;4.90;;;;;;;;;;5035904;28;20999;-80
2024/04/03 14:06:05;;;;;;;5.90;4.30;;;;;;;;;;5035956;28;20462;-80
2024/04/03 14:08:31;;;;;;;6.90;4.60;;;;;;;;;;5050738;28;20522;-79
2024/04/03 14:11:00;;;;;;;5.30;4.20;;;;;;;;;;5035928;28;20798;-80
2024/04/03 14:13:26;;;;;;;4.53;2.97;;;;;;;;;;5035831;28;20412;-79
2024/04/03 14:15:52;;;;;;;5.90;4.47;;;;;;;;;;5035799;28;20405;-79
2024/04/03 14:18:18;;;;;;;6.20;4.17;;;;;;;;;;5035745;28;20923;-79
2024/04/03 14:20:45;;;;;;;4.80;3.30;;;;;;;;;;5035081;28;20411;-84
2024/04/03 14:23:11;;;;;;;6.10;4.67;;;;;;;;;;5026159;28;20831;-80
2024/04/03 14:25:43;;;;;;;6.40;4.60;;;;;;;;;;5015946;28;20507;-81
2024/04/03 14:28:12;;;;;;;4.80;3.10;;;;;;;;;;5015915;28;20457;-81
2024/04/03 14:30:40;;;;;;;4.30;3.50;;;;;;;;;;5015835;28;20904;-83
2024/04/03 14:33:06;;;;;;;4.97;3.30;;;;;;;;;;5015899;28;20412;-81
2024/04/03 14:35:32;;;;;;;5.53;3.87;;;;;;;;;;5015807;28;20874;-81
2024/04/03 14:38:01;;;;;;;4.87;3.77;;;;;;;;;;5015333;28;20420;-82
2024/04/03 14:40:27;;;;;;;4.77;3.07;;;;;;;;;;5015744;28;20431;-81